sensor_id;sensor_type;location;lat;lon;timestamp;temperature;humidity
4699;DHT22;33708;49.466;11.176;2023-06-04T00:00:25;11.50;1.00
4699;DHT22;33708;49.466;11.176;2023-06-04T00:02:51;11.30;1.00
4699;DHT22;33708;49.466;11.176;2023-06-04T00:05:17;11.30;1.00
4699;DHT22;33708;49.466;11.176;2023-06-04T00:07:42;11.30;1.00
4699;DHT22;33708;49.466;11.176;2023-06-04T00:10:08;11.30;1.00
4699;DHT22;33708;49.466;11.176;2023-06-04T00:12:34;11.40;1.00
4699;DHT22;33708;49.466;11.176;2023-06-04T00:15:00;11.40;1.00
4699;DHT22;33708;49.466;11.176;2023-06-04T00:17:25;11.50;1.00
4699;DHT22;33708;49.466;11.176;2023-06-04T00:19:51;11.50;1.00
4699;DHT22;33708;49.466;11.176;2023-06-04T00:22:16;11.50;1.00
4699;DHT22;33708;49.466;11.176;2023-06-04T00:24:42;11.50;1.00
4699;DHT22;33708;49.466;11.176;2023-06-04T00:27:08;11.50;1.00
4699;DHT22;33708;49.466;11.176;2023-06-04T00:29:34;11.50;1.00
4699;DHT22;33708;49.466;11.176;2023-06-04T00:32:00;11.40;1.00
4699;DHT22;33708;49.466;11.176;2023-06-04T00:34:26;11.40;1.00
4699;DHT22;33708;49.466;11.176;2023-06-04T00:36:52;11.20;1.00
4699;DHT22;33708;49.466;11.176;2023-06-04T00:39:17;11.10;1.00
4699;DHT22;33708;49.466;11.176;2023-06-04T00:41:43;11.10;1.00
4699;DHT22;33708;49.466;11.176;2023-06-04T00:44:08;11.10;1.00
4699;DHT22;33708;49.466;11.176;2023-06-04T00:46:35;11.20;1.00
4699;DHT22;33708;49.466;11.176;2023-06-04T00:49:01;11.20;1.00
4699;DHT22;33708;49.466;11.176;2023-06-04T00:51:30;11.10;1.00
4699;DHT22;33708;49.466;11.176;2023-06-04T00:53:56;11.20;1.00
4699;DHT22;33708;49.466;11.176;2023-06-04T00:56:21;11.20;1.00
4699;DHT22;33708;49.466;11.176;2023-06-04T00:58:47;11.50;1.00
4699;DHT22;33708;49.466;11.176;2023-06-04T01:03:45;11.40;1.00
4699;DHT22;33708;49.466;11.176;2023-06-04T01:06:26;11.30;1.00
4699;DHT22;33708;49.466;11.176;2023-06-04T01:08:54;11.30;1.00
4699;DHT22;33708;49.466;11.176;2023-06-04T01:11:36;11.40;1.00
4699;DHT22;33708;49.466;11.176;2023-06-04T01:14:04;11.40;1.00
4699;DHT22;33708;49.466;11.176;2023-06-04T01:16:34;11.50;1.00
4699;DHT22;33708;49.466;11.176;2023-06-04T01:19:02;11.50;1.00
4699;DHT22;33708;49.466;11.176;2023-06-04T01:21:31;11.40;1.00
4699;DHT22;33708;49.466;11.176;2023-06-04T01:24:01;11.30;1.00
4699;DHT22;33708;49.466;11.176;2023-06-04T01:26:31;11.20;1.00
4699;DHT22;33708;49.466;11.176;2023-06-04T01:28:58;11.70;1.00
4699;DHT22;33708;49.466;11.176;2023-06-04T01:31:25;11.30;1.00
4699;DHT22;33708;49.466;11.176;2023-06-04T01:33:54;11.30;1.00
4699;DHT22;33708;49.466;11.176;2023-06-04T01:36:21;11.20;1.00
4699;DHT22;33708;49.466;11.176;2023-06-04T01:38:48;11.20;1.00
4699;DHT22;33708;49.466;11.176;2023-06-04T01:41:13;11.30;1.00
4699;DHT22;33708;49.466;11.176;2023-06-04T01:43:39;11.40;1.00
4699;DHT22;33708;49.466;11.176;2023-06-04T01:46:05;11.30;1.00
4699;DHT22;33708;49.466;11.176;2023-06-04T01:48:30;11.30;1.00
4699;DHT22;33708;49.466;11.176;2023-06-04T01:50:57;11.30;1.00
4699;DHT22;33708;49.466;11.176;2023-06-04T01:53:23;11.30;1.00
4699;DHT22;33708;49.466;11.176;2023-06-04T01:55:48;11.30;1.00
4699;DHT22;33708;49.466;11.176;2023-06-04T01:58:17;11.20;1.00
4699;DHT22;33708;49.466;11.176;2023-06-04T02:00:51;11.20;1.00
4699;DHT22;33708;49.466;11.176;2023-06-04T02:03:18;11.10;1.00
4699;DHT22;33708;49.466;11.176;2023-06-04T02:05:44;11.30;1.00
4699;DHT22;33708;49.466;11.176;2023-06-04T02:08:14;11.00;1.00
4699;DHT22;33708;49.466;11.176;2023-06-04T02:10:47;10.80;1.00
4699;DHT22;33708;49.466;11.176;2023-06-04T02:13:13;10.80;1.00
4699;DHT22;33708;49.466;11.176;2023-06-04T02:15:39;10.70;1.00
4699;DHT22;33708;49.466;11.176;2023-06-04T02:18:14;10.60;1.00
4699;DHT22;33708;49.466;11.176;2023-06-04T02:20:42;10.50;1.00
4699;DHT22;33708;49.466;11.176;2023-06-04T02:23:09;10.50;1.00
4699;DHT22;33708;49.466;11.176;2023-06-04T02:25:34;10.50;1.00
4699;DHT22;33708;49.466;11.176;2023-06-04T02:28:00;10.40;1.00
4699;DHT22;33708;49.466;11.176;2023-06-04T02:30:26;10.50;1.00
4699;DHT22;33708;49.466;11.176;2023-06-04T02:32:51;10.50;1.00
4699;DHT22;33708;49.466;11.176;2023-06-04T02:35:17;10.50;1.00
4699;DHT22;33708;49.466;11.176;2023-06-04T02:37:43;10.40;1.00
4699;DHT22;33708;49.466;11.176;2023-06-04T02:40:10;10.30;1.00
4699;DHT22;33708;49.466;11.176;2023-06-04T02:42:35;10.30;1.00
4699;DHT22;33708;49.466;11.176;2023-06-04T02:45:01;10.20;1.00
4699;DHT22;33708;49.466;11.176;2023-06-04T02:47:27;10.20;1.00
4699;DHT22;33708;49.466;11.176;2023-06-04T02:49:53;10.10;1.00
4699;DHT22;33708;49.466;11.176;2023-06-04T02:52:18;10.20;1.00
4699;DHT22;33708;49.466;11.176;2023-06-04T02:54:44;10.20;1.00
4699;DHT22;33708;49.466;11.176;2023-06-04T02:57:09;10.20;1.00
4699;DHT22;33708;49.466;11.176;2023-06-04T02:59:35;10.40;1.00
4699;DHT22;33708;49.466;11.176;2023-06-04T03:02:02;10.30;1.00
4699;DHT22;33708;49.466;11.176;2023-06-04T03:04:27;10.20;1.00
4699;DHT22;33708;49.466;11.176;2023-06-04T03:07:01;10.20;1.00
4699;DHT22;33708;49.466;11.176;2023-06-04T03:09:28;10.20;1.00
4699;DHT22;33708;49.466;11.176;2023-06-04T03:11:53;10.30;1.00
4699;DHT22;33708;49.466;11.176;2023-06-04T03:14:19;10.20;1.00
4699;DHT22;33708;49.466;11.176;2023-06-04T03:16:45;10.10;1.00
4699;DHT22;33708;49.466;11.176;2023-06-04T03:19:11;10.10;1.00
4699;DHT22;33708;49.466;11.176;2023-06-04T03:21:37;10.10;1.00
4699;DHT22;33708;49.466;11.176;2023-06-04T03:24:05;10.10;1.00
4699;DHT22;33708;49.466;11.176;2023-06-04T03:26:31;10.20;1.00
4699;DHT22;33708;49.466;11.176;2023-06-04T03:28:56;10.20;1.00
4699;DHT22;33708;49.466;11.176;2023-06-04T03:31:22;10.60;1.00
4699;DHT22;33708;49.466;11.176;2023-06-04T03:33:48;11.30;1.00
4699;DHT22;33708;49.466;11.176;2023-06-04T03:36:13;12.00;1.00
4699;DHT22;33708;49.466;11.176;2023-06-04T03:38:39;12.50;1.00
4699;DHT22;33708;49.466;11.176;2023-06-04T03:41:04;13.20;1.00
4699;DHT22;33708;49.466;11.176;2023-06-04T03:43:30;13.70;1.00
4699;DHT22;33708;49.466;11.176;2023-06-04T03:45:55;14.20;1.00
4699;DHT22;33708;49.466;11.176;2023-06-04T03:48:21;14.60;1.00
4699;DHT22;33708;49.466;11.176;2023-06-04T03:50:46;14.80;1.00
4699;DHT22;33708;49.466;11.176;2023-06-04T03:53:12;15.30;1.00
4699;DHT22;33708;49.466;11.176;2023-06-04T03:55:38;15.80;1.00
4699;DHT22;33708;49.466;11.176;2023-06-04T03:58:04;16.20;1.00
4699;DHT22;33708;49.466;11.176;2023-06-04T04:00:29;16.50;1.00
4699;DHT22;33708;49.466;11.176;2023-06-04T04:02:55;16.90;1.00
4699;DHT22;33708;49.466;11.176;2023-06-04T04:05:21;16.80;1.00
4699;DHT22;33708;49.466;11.176;2023-06-04T04:07:47;17.60;1.00
4699;DHT22;33708;49.466;11.176;2023-06-04T04:10:13;18.50;1.00
4699;DHT22;33708;49.466;11.176;2023-06-04T04:12:39;18.60;1.00
4699;DHT22;33708;49.466;11.176;2023-06-04T04:15:05;19.00;1.00
4699;DHT22;33708;49.466;11.176;2023-06-04T04:17:30;19.70;1.00
4699;DHT22;33708;49.466;11.176;2023-06-04T04:19:56;19.50;1.00
4699;DHT22;33708;49.466;11.176;2023-06-04T04:22:21;20.20;1.00
4699;DHT22;33708;49.466;11.176;2023-06-04T04:24:47;20.20;1.00
4699;DHT22;33708;49.466;11.176;2023-06-04T04:27:13;19.70;1.00
4699;DHT22;33708;49.466;11.176;2023-06-04T04:29:39;21.60;1.00
4699;DHT22;33708;49.466;11.176;2023-06-04T04:32:05;21.30;1.00
4699;DHT22;33708;49.466;11.176;2023-06-04T04:34:37;22.00;1.00
4699;DHT22;33708;49.466;11.176;2023-06-04T04:37:07;20.10;1.00
4699;DHT22;33708;49.466;11.176;2023-06-04T04:39:35;22.00;1.00
4699;DHT22;33708;49.466;11.176;2023-06-04T04:42:04;20.70;1.00
4699;DHT22;33708;49.466;11.176;2023-06-04T04:44:30;21.40;1.00
4699;DHT22;33708;49.466;11.176;2023-06-04T04:46:55;21.80;1.00
4699;DHT22;33708;49.466;11.176;2023-06-04T04:49:22;22.90;1.00
4699;DHT22;33708;49.466;11.176;2023-06-04T04:51:47;23.20;1.00
4699;DHT22;33708;49.466;11.176;2023-06-04T04:54:13;22.30;1.00
4699;DHT22;33708;49.466;11.176;2023-06-04T04:56:38;24.20;1.00
4699;DHT22;33708;49.466;11.176;2023-06-04T04:59:04;25.20;1.00
4699;DHT22;33708;49.466;11.176;2023-06-04T05:01:30;22.70;1.00
4699;DHT22;33708;49.466;11.176;2023-06-04T05:03:55;23.00;1.00
4699;DHT22;33708;49.466;11.176;2023-06-04T05:06:21;22.30;1.00
4699;DHT22;33708;49.466;11.176;2023-06-04T05:08:47;23.70;1.00
4699;DHT22;33708;49.466;11.176;2023-06-04T05:11:12;24.70;1.00
4699;DHT22;33708;49.466;11.176;2023-06-04T05:13:38;25.60;1.00
4699;DHT22;33708;49.466;11.176;2023-06-04T05:16:04;24.80;1.00
4699;DHT22;33708;49.466;11.176;2023-06-04T05:18:38;26.50;1.00
4699;DHT22;33708;49.466;11.176;2023-06-04T05:21:07;25.90;1.00
4699;DHT22;33708;49.466;11.176;2023-06-04T05:23:33;27.80;1.00
4699;DHT22;33708;49.466;11.176;2023-06-04T05:26:03;26.70;1.00
4699;DHT22;33708;49.466;11.176;2023-06-04T05:28:30;28.20;1.00
4699;DHT22;33708;49.466;11.176;2023-06-04T05:30:58;26.20;1.00
4699;DHT22;33708;49.466;11.176;2023-06-04T05:33:27;23.30;1.00
4699;DHT22;33708;49.466;11.176;2023-06-04T05:35:53;26.20;1.00
4699;DHT22;33708;49.466;11.176;2023-06-04T05:38:23;25.90;1.00
4699;DHT22;33708;49.466;11.176;2023-06-04T05:40:51;25.70;1.00
4699;DHT22;33708;49.466;11.176;2023-06-04T05:43:17;25.70;1.00
4699;DHT22;33708;49.466;11.176;2023-06-04T05:45:43;25.60;1.00
4699;DHT22;33708;49.466;11.176;2023-06-04T05:48:09;26.30;1.00
4699;DHT22;33708;49.466;11.176;2023-06-04T05:50:35;27.30;1.00
4699;DHT22;33708;49.466;11.176;2023-06-04T05:53:00;27.30;1.00
4699;DHT22;33708;49.466;11.176;2023-06-04T05:55:26;26.90;1.00
4699;DHT22;33708;49.466;11.176;2023-06-04T05:57:54;27.10;1.00
4699;DHT22;33708;49.466;11.176;2023-06-04T06:00:20;26.20;1.00
4699;DHT22;33708;49.466;11.176;2023-06-04T06:02:47;27.00;1.00
4699;DHT22;33708;49.466;11.176;2023-06-04T06:05:17;28.00;1.00
4699;DHT22;33708;49.466;11.176;2023-06-04T06:07:44;29.20;1.00
4699;DHT22;33708;49.466;11.176;2023-06-04T06:10:10;29.60;1.00
4699;DHT22;33708;49.466;11.176;2023-06-04T06:12:36;28.60;1.00
4699;DHT22;33708;49.466;11.176;2023-06-04T06:15:01;28.80;1.00
4699;DHT22;33708;49.466;11.176;2023-06-04T06:17:27;31.60;1.00
4699;DHT22;33708;49.466;11.176;2023-06-04T06:19:54;32.10;1.00
4699;DHT22;33708;49.466;11.176;2023-06-04T06:22:19;30.10;1.00
4699;DHT22;33708;49.466;11.176;2023-06-04T06:24:45;29.50;1.00
4699;DHT22;33708;49.466;11.176;2023-06-04T06:27:14;30.50;1.00
4699;DHT22;33708;49.466;11.176;2023-06-04T06:29:40;30.30;1.00
4699;DHT22;33708;49.466;11.176;2023-06-04T06:32:07;29.80;1.00
4699;DHT22;33708;49.466;11.176;2023-06-04T06:34:32;32.80;1.00
4699;DHT22;33708;49.466;11.176;2023-06-04T06:36:58;32.40;1.00
4699;DHT22;33708;49.466;11.176;2023-06-04T06:39:24;32.90;1.00
4699;DHT22;33708;49.466;11.176;2023-06-04T06:41:49;30.10;1.00
4699;DHT22;33708;49.466;11.176;2023-06-04T06:44:15;33.20;1.00
4699;DHT22;33708;49.466;11.176;2023-06-04T06:46:40;30.80;1.00
4699;DHT22;33708;49.466;11.176;2023-06-04T06:49:06;29.70;1.00
4699;DHT22;33708;49.466;11.176;2023-06-04T06:51:32;28.10;1.00
4699;DHT22;33708;49.466;11.176;2023-06-04T06:53:57;28.20;1.00
4699;DHT22;33708;49.466;11.176;2023-06-04T06:56:23;25.60;1.00
4699;DHT22;33708;49.466;11.176;2023-06-04T06:58:48;28.30;1.00
4699;DHT22;33708;49.466;11.176;2023-06-04T07:01:14;29.10;1.00
4699;DHT22;33708;49.466;11.176;2023-06-04T07:03:39;29.40;1.00
4699;DHT22;33708;49.466;11.176;2023-06-04T07:06:06;27.60;1.00
4699;DHT22;33708;49.466;11.176;2023-06-04T07:08:32;30.00;1.00
4699;DHT22;33708;49.466;11.176;2023-06-04T07:10:58;31.00;1.00
4699;DHT22;33708;49.466;11.176;2023-06-04T07:13:24;30.50;1.00
4699;DHT22;33708;49.466;11.176;2023-06-04T07:15:50;30.60;1.00
4699;DHT22;33708;49.466;11.176;2023-06-04T07:18:16;30.80;1.00
4699;DHT22;33708;49.466;11.176;2023-06-04T07:20:42;30.80;1.00
4699;DHT22;33708;49.466;11.176;2023-06-04T07:23:07;28.10;1.00
4699;DHT22;33708;49.466;11.176;2023-06-04T07:25:33;30.90;1.00
4699;DHT22;33708;49.466;11.176;2023-06-04T07:27:59;29.80;1.00
4699;DHT22;33708;49.466;11.176;2023-06-04T07:30:25;29.60;1.00
4699;DHT22;33708;49.466;11.176;2023-06-04T07:32:51;31.80;1.00
4699;DHT22;33708;49.466;11.176;2023-06-04T07:35:17;31.90;1.00
4699;DHT22;33708;49.466;11.176;2023-06-04T07:37:43;32.10;1.00
4699;DHT22;33708;49.466;11.176;2023-06-04T07:42:37;32.70;1.00
4699;DHT22;33708;49.466;11.176;2023-06-04T07:45:03;32.60;1.00
4699;DHT22;33708;49.466;11.176;2023-06-04T07:47:28;33.40;1.00
4699;DHT22;33708;49.466;11.176;2023-06-04T07:49:54;32.50;1.00
4699;DHT22;33708;49.466;11.176;2023-06-04T07:52:20;35.20;1.00
4699;DHT22;33708;49.466;11.176;2023-06-04T07:54:45;33.40;1.00
4699;DHT22;33708;49.466;11.176;2023-06-04T07:57:11;31.80;1.00
4699;DHT22;33708;49.466;11.176;2023-06-04T07:59:37;32.60;1.00
4699;DHT22;33708;49.466;11.176;2023-06-04T08:02:03;33.90;1.00
4699;DHT22;33708;49.466;11.176;2023-06-04T08:04:29;33.20;1.00
4699;DHT22;33708;49.466;11.176;2023-06-04T08:06:55;33.60;1.00
4699;DHT22;33708;49.466;11.176;2023-06-04T08:09:20;35.70;1.00
4699;DHT22;33708;49.466;11.176;2023-06-04T08:11:46;36.10;1.00
4699;DHT22;33708;49.466;11.176;2023-06-04T08:14:12;37.30;1.00
4699;DHT22;33708;49.466;11.176;2023-06-04T08:16:39;33.00;1.00
4699;DHT22;33708;49.466;11.176;2023-06-04T08:19:06;32.40;1.00
4699;DHT22;33708;49.466;11.176;2023-06-04T08:21:33;34.00;1.00
4699;DHT22;33708;49.466;11.176;2023-06-04T08:23:59;34.60;1.00
4699;DHT22;33708;49.466;11.176;2023-06-04T08:26:25;32.20;1.00
4699;DHT22;33708;49.466;11.176;2023-06-04T08:28:52;32.80;1.00
4699;DHT22;33708;49.466;11.176;2023-06-04T08:31:18;30.80;1.00
4699;DHT22;33708;49.466;11.176;2023-06-04T08:33:46;31.30;1.00
4699;DHT22;33708;49.466;11.176;2023-06-04T08:36:12;33.10;1.00
4699;DHT22;33708;49.466;11.176;2023-06-04T08:38:38;34.80;1.00
4699;DHT22;33708;49.466;11.176;2023-06-04T08:41:15;34.00;1.00
4699;DHT22;33708;49.466;11.176;2023-06-04T08:43:42;35.10;1.00
4699;DHT22;33708;49.466;11.176;2023-06-04T08:46:09;35.50;1.00
4699;DHT22;33708;49.466;11.176;2023-06-04T08:48:36;35.10;1.00
4699;DHT22;33708;49.466;11.176;2023-06-04T08:51:05;34.90;1.00
4699;DHT22;33708;49.466;11.176;2023-06-04T08:53:32;33.50;1.00
4699;DHT22;33708;49.466;11.176;2023-06-04T08:55:59;34.90;1.00
4699;DHT22;33708;49.466;11.176;2023-06-04T08:58:25;34.50;1.00
4699;DHT22;33708;49.466;11.176;2023-06-04T09:00:51;36.00;1.00
4699;DHT22;33708;49.466;11.176;2023-06-04T09:03:17;34.30;1.00
4699;DHT22;33708;49.466;11.176;2023-06-04T09:05:47;36.10;1.00
4699;DHT22;33708;49.466;11.176;2023-06-04T09:08:17;38.00;1.00
4699;DHT22;33708;49.466;11.176;2023-06-04T09:10:44;36.50;1.00
4699;DHT22;33708;49.466;11.176;2023-06-04T09:13:12;36.70;1.00
4699;DHT22;33708;49.466;11.176;2023-06-04T09:15:38;35.00;1.00
4699;DHT22;33708;49.466;11.176;2023-06-04T09:18:04;33.40;1.00
4699;DHT22;33708;49.466;11.176;2023-06-04T09:20:29;32.70;1.00
4699;DHT22;33708;49.466;11.176;2023-06-04T09:22:55;33.10;1.00
4699;DHT22;33708;49.466;11.176;2023-06-04T09:25:25;34.90;1.00
4699;DHT22;33708;49.466;11.176;2023-06-04T09:27:51;35.70;1.00
4699;DHT22;33708;49.466;11.176;2023-06-04T09:30:17;35.70;1.00
4699;DHT22;33708;49.466;11.176;2023-06-04T09:32:43;34.90;1.00
4699;DHT22;33708;49.466;11.176;2023-06-04T09:35:14;35.00;1.00
4699;DHT22;33708;49.466;11.176;2023-06-04T09:37:40;33.70;1.00
4699;DHT22;33708;49.466;11.176;2023-06-04T09:40:08;34.20;1.00
4699;DHT22;33708;49.466;11.176;2023-06-04T09:42:48;33.60;1.00
4699;DHT22;33708;49.466;11.176;2023-06-04T09:47:54;34.40;1.00
4699;DHT22;33708;49.466;11.176;2023-06-04T09:50:25;32.50;1.00
4699;DHT22;33708;49.466;11.176;2023-06-04T09:52:52;31.40;1.00
4699;DHT22;33708;49.466;11.176;2023-06-04T09:55:19;29.30;1.00
4699;DHT22;33708;49.466;11.176;2023-06-04T09:57:50;28.10;1.00
4699;DHT22;33708;49.466;11.176;2023-06-04T10:00:17;27.00;1.00
4699;DHT22;33708;49.466;11.176;2023-06-04T10:02:44;26.20;1.00
4699;DHT22;33708;49.466;11.176;2023-06-04T10:05:11;26.30;1.00
4699;DHT22;33708;49.466;11.176;2023-06-04T10:07:41;25.90;1.00
4699;DHT22;33708;49.466;11.176;2023-06-04T10:10:09;25.60;1.00
4699;DHT22;33708;49.466;11.176;2023-06-04T10:12:37;25.10;1.00
4699;DHT22;33708;49.466;11.176;2023-06-04T10:15:07;24.60;1.00
4699;DHT22;33708;49.466;11.176;2023-06-04T10:17:35;24.00;1.00
4699;DHT22;33708;49.466;11.176;2023-06-04T10:20:02;23.80;1.00
4699;DHT22;33708;49.466;11.176;2023-06-04T10:22:37;23.60;1.00
4699;DHT22;33708;49.466;11.176;2023-06-04T10:25:03;24.00;1.00
4699;DHT22;33708;49.466;11.176;2023-06-04T10:27:32;24.10;1.00
4699;DHT22;33708;49.466;11.176;2023-06-04T10:30:01;23.90;1.00
4699;DHT22;33708;49.466;11.176;2023-06-04T10:32:29;24.30;1.00
4699;DHT22;33708;49.466;11.176;2023-06-04T10:34:55;24.70;1.00
4699;DHT22;33708;49.466;11.176;2023-06-04T10:37:25;24.60;1.00
4699;DHT22;33708;49.466;11.176;2023-06-04T10:39:53;24.30;1.00
4699;DHT22;33708;49.466;11.176;2023-06-04T10:42:19;23.90;1.00
4699;DHT22;33708;49.466;11.176;2023-06-04T10:44:48;23.80;1.00
4699;DHT22;33708;49.466;11.176;2023-06-04T10:47:26;24.00;1.00
4699;DHT22;33708;49.466;11.176;2023-06-04T10:49:54;24.40;1.00
4699;DHT22;33708;49.466;11.176;2023-06-04T10:52:22;24.10;1.00
4699;DHT22;33708;49.466;11.176;2023-06-04T10:54:48;23.60;1.00
4699;DHT22;33708;49.466;11.176;2023-06-04T10:57:18;23.60;1.00
4699;DHT22;33708;49.466;11.176;2023-06-04T10:59:56;24.20;1.00
4699;DHT22;33708;49.466;11.176;2023-06-04T11:02:22;24.30;1.00
4699;DHT22;33708;49.466;11.176;2023-06-04T11:05:05;24.60;1.00
4699;DHT22;33708;49.466;11.176;2023-06-04T11:07:46;24.70;1.00
4699;DHT22;33708;49.466;11.176;2023-06-04T11:10:13;24.50;1.00
4699;DHT22;33708;49.466;11.176;2023-06-04T11:12:47;24.40;1.00
4699;DHT22;33708;49.466;11.176;2023-06-04T11:15:14;24.00;1.00
4699;DHT22;33708;49.466;11.176;2023-06-04T11:17:53;24.00;1.00
4699;DHT22;33708;49.466;11.176;2023-06-04T11:20:20;24.30;1.00
4699;DHT22;33708;49.466;11.176;2023-06-04T11:22:56;24.80;1.00
4699;DHT22;33708;49.466;11.176;2023-06-04T11:25:24;25.10;1.00
4699;DHT22;33708;49.466;11.176;2023-06-04T11:27:52;25.10;1.00
4699;DHT22;33708;49.466;11.176;2023-06-04T11:30:19;25.20;1.00
4699;DHT22;33708;49.466;11.176;2023-06-04T11:32:45;25.00;1.00
4699;DHT22;33708;49.466;11.176;2023-06-04T11:35:11;24.90;1.00
4699;DHT22;33708;49.466;11.176;2023-06-04T11:37:38;25.10;1.00
4699;DHT22;33708;49.466;11.176;2023-06-04T11:40:15;24.70;1.00
4699;DHT22;33708;49.466;11.176;2023-06-04T11:42:42;24.70;1.00
4699;DHT22;33708;49.466;11.176;2023-06-04T11:45:10;24.90;1.00
4699;DHT22;33708;49.466;11.176;2023-06-04T11:47:36;25.00;1.00
4699;DHT22;33708;49.466;11.176;2023-06-04T11:50:01;25.10;1.00
4699;DHT22;33708;49.466;11.176;2023-06-04T11:52:27;24.90;1.00
4699;DHT22;33708;49.466;11.176;2023-06-04T11:54:53;24.70;1.00
4699;DHT22;33708;49.466;11.176;2023-06-04T11:57:19;25.00;1.00
4699;DHT22;33708;49.466;11.176;2023-06-04T11:59:45;24.70;1.00
4699;DHT22;33708;49.466;11.176;2023-06-04T12:02:11;24.70;1.00
4699;DHT22;33708;49.466;11.176;2023-06-04T12:04:36;25.10;1.00
4699;DHT22;33708;49.466;11.176;2023-06-04T12:07:03;24.70;1.00
4699;DHT22;33708;49.466;11.176;2023-06-04T12:09:32;24.50;1.00
4699;DHT22;33708;49.466;11.176;2023-06-04T12:12:07;24.80;1.00
4699;DHT22;33708;49.466;11.176;2023-06-04T12:14:34;24.80;1.00
4699;DHT22;33708;49.466;11.176;2023-06-04T12:17:01;25.10;1.00
4699;DHT22;33708;49.466;11.176;2023-06-04T12:19:27;25.10;1.00
4699;DHT22;33708;49.466;11.176;2023-06-04T12:22:03;25.10;1.00
4699;DHT22;33708;49.466;11.176;2023-06-04T12:24:31;25.30;1.00
4699;DHT22;33708;49.466;11.176;2023-06-04T12:27:06;25.40;1.00
4699;DHT22;33708;49.466;11.176;2023-06-04T12:29:32;25.20;1.00
4699;DHT22;33708;49.466;11.176;2023-06-04T12:32:09;25.60;1.00
4699;DHT22;33708;49.466;11.176;2023-06-04T12:34:40;25.10;1.00
4699;DHT22;33708;49.466;11.176;2023-06-04T12:37:06;25.50;1.00
4699;DHT22;33708;49.466;11.176;2023-06-04T12:39:36;26.10;1.00
4699;DHT22;33708;49.466;11.176;2023-06-04T12:42:06;26.40;1.00
4699;DHT22;33708;49.466;11.176;2023-06-04T12:44:32;26.50;1.00
4699;DHT22;33708;49.466;11.176;2023-06-04T12:46:58;26.60;1.00
4699;DHT22;33708;49.466;11.176;2023-06-04T12:49:23;26.30;1.00
4699;DHT22;33708;49.466;11.176;2023-06-04T12:51:49;25.50;1.00
4699;DHT22;33708;49.466;11.176;2023-06-04T12:54:15;25.80;1.00
4699;DHT22;33708;49.466;11.176;2023-06-04T12:56:41;25.50;1.00
4699;DHT22;33708;49.466;11.176;2023-06-04T12:59:07;25.30;1.00
4699;DHT22;33708;49.466;11.176;2023-06-04T13:01:32;25.60;1.00
4699;DHT22;33708;49.466;11.176;2023-06-04T13:03:58;25.50;1.00
4699;DHT22;33708;49.466;11.176;2023-06-04T13:06:24;25.70;1.00
4699;DHT22;33708;49.466;11.176;2023-06-04T13:08:50;25.60;1.00
4699;DHT22;33708;49.466;11.176;2023-06-04T13:11:15;25.80;1.00
4699;DHT22;33708;49.466;11.176;2023-06-04T13:13:41;24.90;1.00
4699;DHT22;33708;49.466;11.176;2023-06-04T13:16:07;25.80;1.00
4699;DHT22;33708;49.466;11.176;2023-06-04T13:18:33;26.10;1.00
4699;DHT22;33708;49.466;11.176;2023-06-04T13:20:58;26.00;1.00
4699;DHT22;33708;49.466;11.176;2023-06-04T13:23:24;26.10;1.00
4699;DHT22;33708;49.466;11.176;2023-06-04T13:25:49;26.20;1.00
4699;DHT22;33708;49.466;11.176;2023-06-04T13:28:16;26.70;1.00
4699;DHT22;33708;49.466;11.176;2023-06-04T13:30:43;27.00;1.00
4699;DHT22;33708;49.466;11.176;2023-06-04T13:33:08;26.90;1.00
4699;DHT22;33708;49.466;11.176;2023-06-04T13:35:34;26.20;1.00
4699;DHT22;33708;49.466;11.176;2023-06-04T13:38:01;26.20;1.00
4699;DHT22;33708;49.466;11.176;2023-06-04T13:40:27;26.00;1.00
4699;DHT22;33708;49.466;11.176;2023-06-04T13:42:53;25.80;1.00
4699;DHT22;33708;49.466;11.176;2023-06-04T13:45:18;25.80;1.00
4699;DHT22;33708;49.466;11.176;2023-06-04T13:47:46;25.80;1.00
4699;DHT22;33708;49.466;11.176;2023-06-04T13:50:13;25.90;1.00
4699;DHT22;33708;49.466;11.176;2023-06-04T13:52:39;26.40;1.00
4699;DHT22;33708;49.466;11.176;2023-06-04T13:55:05;26.00;1.00
4699;DHT22;33708;49.466;11.176;2023-06-04T13:57:30;26.10;1.00
4699;DHT22;33708;49.466;11.176;2023-06-04T13:59:56;26.20;1.00
4699;DHT22;33708;49.466;11.176;2023-06-04T14:02:22;26.00;1.00
4699;DHT22;33708;49.466;11.176;2023-06-04T14:04:50;25.60;1.00
4699;DHT22;33708;49.466;11.176;2023-06-04T14:07:16;25.80;1.00
4699;DHT22;33708;49.466;11.176;2023-06-04T14:09:42;25.50;1.00
4699;DHT22;33708;49.466;11.176;2023-06-04T14:12:08;26.00;1.00
4699;DHT22;33708;49.466;11.176;2023-06-04T14:14:34;25.90;1.00
4699;DHT22;33708;49.466;11.176;2023-06-04T14:17:03;26.20;1.00
4699;DHT22;33708;49.466;11.176;2023-06-04T14:19:29;26.40;1.00
4699;DHT22;33708;49.466;11.176;2023-06-04T14:21:55;26.60;1.00
4699;DHT22;33708;49.466;11.176;2023-06-04T14:24:21;26.10;1.00
4699;DHT22;33708;49.466;11.176;2023-06-04T14:26:46;25.90;1.00
4699;DHT22;33708;49.466;11.176;2023-06-04T14:29:12;25.80;1.00
4699;DHT22;33708;49.466;11.176;2023-06-04T14:31:38;26.10;1.00
4699;DHT22;33708;49.466;11.176;2023-06-04T14:34:04;26.20;1.00
4699;DHT22;33708;49.466;11.176;2023-06-04T14:36:30;26.10;1.00
4699;DHT22;33708;49.466;11.176;2023-06-04T14:38:56;25.90;1.00
4699;DHT22;33708;49.466;11.176;2023-06-04T14:41:22;25.80;1.00
4699;DHT22;33708;49.466;11.176;2023-06-04T14:43:47;26.20;1.00
4699;DHT22;33708;49.466;11.176;2023-06-04T14:46:13;26.70;1.00
4699;DHT22;33708;49.466;11.176;2023-06-04T14:48:39;27.00;1.00
4699;DHT22;33708;49.466;11.176;2023-06-04T14:51:04;26.30;1.00
4699;DHT22;33708;49.466;11.176;2023-06-04T14:53:30;26.10;1.00
4699;DHT22;33708;49.466;11.176;2023-06-04T14:55:56;26.30;1.00
4699;DHT22;33708;49.466;11.176;2023-06-04T14:58:21;26.50;1.00
4699;DHT22;33708;49.466;11.176;2023-06-04T15:00:47;26.80;1.00
4699;DHT22;33708;49.466;11.176;2023-06-04T15:03:13;26.90;1.00
4699;DHT22;33708;49.466;11.176;2023-06-04T15:05:39;26.60;1.00
4699;DHT22;33708;49.466;11.176;2023-06-04T15:08:05;26.50;1.00
4699;DHT22;33708;49.466;11.176;2023-06-04T15:10:31;26.00;1.00
4699;DHT22;33708;49.466;11.176;2023-06-04T15:12:59;26.10;1.00
4699;DHT22;33708;49.466;11.176;2023-06-04T15:15:25;26.20;1.00
4699;DHT22;33708;49.466;11.176;2023-06-04T15:17:52;26.40;1.00
4699;DHT22;33708;49.466;11.176;2023-06-04T15:20:17;26.40;1.00
4699;DHT22;33708;49.466;11.176;2023-06-04T15:22:43;26.00;1.00
4699;DHT22;33708;49.466;11.176;2023-06-04T15:25:09;25.60;1.00
4699;DHT22;33708;49.466;11.176;2023-06-04T15:27:35;25.80;1.00
4699;DHT22;33708;49.466;11.176;2023-06-04T15:30:02;25.70;1.00
4699;DHT22;33708;49.466;11.176;2023-06-04T15:32:27;25.60;1.00
4699;DHT22;33708;49.466;11.176;2023-06-04T15:34:53;25.50;1.00
4699;DHT22;33708;49.466;11.176;2023-06-04T15:37:19;24.70;1.00
4699;DHT22;33708;49.466;11.176;2023-06-04T15:39:44;25.30;1.00
4699;DHT22;33708;49.466;11.176;2023-06-04T15:42:10;25.50;1.00
4699;DHT22;33708;49.466;11.176;2023-06-04T15:44:37;25.60;1.00
4699;DHT22;33708;49.466;11.176;2023-06-04T15:47:03;25.60;1.00
4699;DHT22;33708;49.466;11.176;2023-06-04T15:49:28;25.70;1.00